sensor_id;sensor_type;location;lat;lon;timestamp;P1;durP1;ratioP1;P2;durP2;ratioP2
82032;SDS011;71595;52.180;4.512;2023-11-21T00:01:43;8.70;;;3.50;;
82032;SDS011;71595;52.180;4.512;2023-11-21T00:04:09;8.77;;;4.00;;
82032;SDS011;71595;52.180;4.512;2023-11-21T00:08:59;9.98;;;4.28;;
82032;SDS011;71595;52.180;4.512;2023-11-21T00:13:50;9.25;;;4.03;;
82032;SDS011;71595;52.180;4.512;2023-11-21T00:16:16;9.20;;;4.07;;
82032;SDS011;71595;52.180;4.512;2023-11-21T00:18:42;12.90;;;4.82;;
82032;SDS011;71595;52.180;4.512;2023-11-21T00:21:07;9.68;;;4.10;;
82032;SDS011;71595;52.180;4.512;2023-11-21T00:23:34;8.95;;;3.92;;
82032;SDS011;71595;52.180;4.512;2023-11-21T00:26:00;8.38;;;4.15;;
82032;SDS011;71595;52.180;4.512;2023-11-21T00:30:51;9.15;;;3.75;;
82032;SDS011;71595;52.180;4.512;2023-11-21T00:35:42;9.10;;;3.80;;
82032;SDS011;71595;52.180;4.512;2023-11-21T00:40:33;8.70;;;3.80;;
82032;SDS011;71595;52.180;4.512;2023-11-21T00:45:24;13.45;;;3.83;;
82032;SDS011;71595;52.180;4.512;2023-11-21T00:47:49;13.38;;;4.03;;
82032;SDS011;71595;52.180;4.512;2023-11-21T00:52:40;12.55;;;3.92;;
82032;SDS011;71595;52.180;4.512;2023-11-21T00:57:32;11.40;;;4.18;;
82032;SDS011;71595;52.180;4.512;2023-11-21T00:59:58;7.65;;;3.40;;
82032;SDS011;71595;52.180;4.512;2023-11-21T01:04:50;9.07;;;4.15;;
82032;SDS011;71595;52.180;4.512;2023-11-21T01:07:15;9.95;;;3.42;;
82032;SDS011;71595;52.180;4.512;2023-11-21T01:09:41;9.32;;;3.70;;
82032;SDS011;71595;52.180;4.512;2023-11-21T01:14:32;8.95;;;4.00;;
82032;SDS011;71595;52.180;4.512;2023-11-21T01:16:57;9.15;;;3.60;;
82032;SDS011;71595;52.180;4.512;2023-11-21T01:21:48;10.40;;;3.70;;
82032;SDS011;71595;52.180;4.512;2023-11-21T01:26:39;8.38;;;4.00;;
82032;SDS011;71595;52.180;4.512;2023-11-21T01:31:30;11.98;;;4.15;;
82032;SDS011;71595;52.180;4.512;2023-11-21T01:33:56;9.98;;;3.85;;
82032;SDS011;71595;52.180;4.512;2023-11-21T01:36:22;6.35;;;3.80;;
82032;SDS011;71595;52.180;4.512;2023-11-21T01:41:15;8.32;;;3.42;;
82032;SDS011;71595;52.180;4.512;2023-11-21T01:43:41;10.55;;;4.18;;
82032;SDS011;71595;52.180;4.512;2023-11-21T01:46:06;8.77;;;3.17;;
82032;SDS011;71595;52.180;4.512;2023-11-21T01:48:34;8.38;;;3.40;;
82032;SDS011;71595;52.180;4.512;2023-11-21T01:50:59;7.53;;;3.22;;
82032;SDS011;71595;52.180;4.512;2023-11-21T01:53:26;9.70;;;3.72;;
82032;SDS011;71595;52.180;4.512;2023-11-21T01:55:52;6.85;;;3.00;;
82032;SDS011;71595;52.180;4.512;2023-11-21T01:58:18;6.72;;;3.45;;
82032;SDS011;71595;52.180;4.512;2023-11-21T02:00:45;11.68;;;3.67;;
82032;SDS011;71595;52.180;4.512;2023-11-21T02:03:10;7.07;;;3.00;;
82032;SDS011;71595;52.180;4.512;2023-11-21T02:05:35;7.45;;;3.10;;
82032;SDS011;71595;52.180;4.512;2023-11-21T02:10:27;8.25;;;2.67;;
82032;SDS011;71595;52.180;4.512;2023-11-21T02:12:54;7.43;;;3.10;;
82032;SDS011;71595;52.180;4.512;2023-11-21T02:15:21;10.85;;;3.58;;
82032;SDS011;71595;52.180;4.512;2023-11-21T02:17:48;6.10;;;2.95;;
82032;SDS011;71595;52.180;4.512;2023-11-21T02:20:18;8.15;;;2.90;;
82032;SDS011;71595;52.180;4.512;2023-11-21T02:22:51;4.78;;;2.70;;
82032;SDS011;71595;52.180;4.512;2023-11-21T02:25:27;6.57;;;2.45;;
82032;SDS011;71595;52.180;4.512;2023-11-21T02:27:54;5.40;;;1.90;;
82032;SDS011;71595;52.180;4.512;2023-11-21T02:30:23;4.88;;;1.85;;
82032;SDS011;71595;52.180;4.512;2023-11-21T02:32:50;5.30;;;1.88;;
82032;SDS011;71595;52.180;4.512;2023-11-21T02:35:18;3.60;;;1.33;;
82032;SDS011;71595;52.180;4.512;2023-11-21T02:37:46;5.47;;;1.60;;
82032;SDS011;71595;52.180;4.512;2023-11-21T02:40:14;4.20;;;1.65;;
82032;SDS011;71595;52.180;4.512;2023-11-21T02:42:52;3.65;;;1.52;;
82032;SDS011;71595;52.180;4.512;2023-11-21T02:45:18;2.40;;;1.13;;
82032;SDS011;71595;52.180;4.512;2023-11-21T02:47:46;3.22;;;1.38;;
82032;SDS011;71595;52.180;4.512;2023-11-21T02:50:12;4.65;;;1.50;;
82032;SDS011;71595;52.180;4.512;2023-11-21T02:52:38;4.38;;;1.48;;
82032;SDS011;71595;52.180;4.512;2023-11-21T02:55:05;2.78;;;1.25;;
82032;SDS011;71595;52.180;4.512;2023-11-21T02:57:32;4.93;;;1.58;;
82032;SDS011;71595;52.180;4.512;2023-11-21T02:59:58;3.65;;;1.42;;
82032;SDS011;71595;52.180;4.512;2023-11-21T03:02:25;5.10;;;1.55;;
82032;SDS011;71595;52.180;4.512;2023-11-21T03:04:50;3.70;;;1.60;;
82032;SDS011;71595;52.180;4.512;2023-11-21T03:07:16;2.97;;;1.48;;
82032;SDS011;71595;52.180;4.512;2023-11-21T03:09:42;3.58;;;1.58;;
82032;SDS011;71595;52.180;4.512;2023-11-21T03:12:07;3.67;;;1.65;;
82032;SDS011;71595;52.180;4.512;2023-11-21T03:14:34;4.93;;;1.75;;
82032;SDS011;71595;52.180;4.512;2023-11-21T03:16:59;4.15;;;1.60;;
82032;SDS011;71595;52.180;4.512;2023-11-21T03:19:24;4.30;;;1.73;;
82032;SDS011;71595;52.180;4.512;2023-11-21T03:34:24;5.38;;;1.33;;
82032;SDS011;71595;52.180;4.512;2023-11-21T03:37:09;3.20;;;1.42;;
82032;SDS011;71595;52.180;4.512;2023-11-21T03:39:35;3.53;;;1.50;;
82032;SDS011;71595;52.180;4.512;2023-11-21T03:44:25;3.60;;;1.60;;
82032;SDS011;71595;52.180;4.512;2023-11-21T03:49:16;2.40;;;1.20;;
82032;SDS011;71595;52.180;4.512;2023-11-21T03:54:06;2.80;;;1.33;;
82032;SDS011;71595;52.180;4.512;2023-11-21T03:56:32;4.65;;;1.70;;
82032;SDS011;71595;52.180;4.512;2023-11-21T04:01:23;7.23;;;1.70;;
82032;SDS011;71595;52.180;4.512;2023-11-21T04:03:49;1.80;;;0.85;;
82032;SDS011;71595;52.180;4.512;2023-11-21T04:06:15;5.28;;;1.30;;
82032;SDS011;71595;52.180;4.512;2023-11-21T04:08:42;3.50;;;1.27;;
82032;SDS011;71595;52.180;4.512;2023-11-21T04:11:09;2.58;;;1.20;;
82032;SDS011;71595;52.180;4.512;2023-11-21T04:13:36;2.97;;;1.40;;
82032;SDS011;71595;52.180;4.512;2023-11-21T04:16:02;3.13;;;1.38;;
82032;SDS011;71595;52.180;4.512;2023-11-21T04:18:28;2.40;;;1.17;;
82032;SDS011;71595;52.180;4.512;2023-11-21T04:20:53;4.10;;;1.13;;
82032;SDS011;71595;52.180;4.512;2023-11-21T04:23:19;3.45;;;1.50;;
82032;SDS011;71595;52.180;4.512;2023-11-21T04:28:09;3.15;;;1.30;;
82032;SDS011;71595;52.180;4.512;2023-11-21T04:30:35;2.88;;;1.42;;
82032;SDS011;71595;52.180;4.512;2023-11-21T04:33:00;3.55;;;1.40;;
82032;SDS011;71595;52.180;4.512;2023-11-21T04:37:51;2.80;;;1.30;;
82032;SDS011;71595;52.180;4.512;2023-11-21T04:42:42;3.58;;;1.50;;
82032;SDS011;71595;52.180;4.512;2023-11-21T04:45:07;3.25;;;1.38;;
82032;SDS011;71595;52.180;4.512;2023-11-21T04:47:34;4.50;;;1.70;;
82032;SDS011;71595;52.180;4.512;2023-11-21T04:50:00;3.17;;;1.38;;
82032;SDS011;71595;52.180;4.512;2023-11-21T04:52:25;3.58;;;1.55;;
82032;SDS011;71595;52.180;4.512;2023-11-21T04:57:16;2.70;;;1.23;;
82032;SDS011;71595;52.180;4.512;2023-11-21T04:59:43;4.03;;;1.45;;
82032;SDS011;71595;52.180;4.512;2023-11-21T05:02:09;2.30;;;1.10;;
82032;SDS011;71595;52.180;4.512;2023-11-21T05:06:59;3.13;;;1.20;;
82032;SDS011;71595;52.180;4.512;2023-11-21T05:09:25;4.13;;;1.35;;
82032;SDS011;71595;52.180;4.512;2023-11-21T05:11:51;2.65;;;1.17;;
82032;SDS011;71595;52.180;4.512;2023-11-21T05:14:18;2.97;;;1.38;;
82032;SDS011;71595;52.180;4.512;2023-11-21T05:16:43;2.30;;;1.20;;
82032;SDS011;71595;52.180;4.512;2023-11-21T05:19:09;3.28;;;1.38;;
82032;SDS011;71595;52.180;4.512;2023-11-21T05:21:34;3.22;;;1.60;;
82032;SDS011;71595;52.180;4.512;2023-11-21T05:24:01;2.85;;;1.20;;
82032;SDS011;71595;52.180;4.512;2023-11-21T05:26:26;2.97;;;1.20;;
82032;SDS011;71595;52.180;4.512;2023-11-21T05:28:52;2.42;;;1.35;;
82032;SDS011;71595;52.180;4.512;2023-11-21T05:31:18;3.13;;;1.73;;
82032;SDS011;71595;52.180;4.512;2023-11-21T05:33:43;6.97;;;1.90;;
82032;SDS011;71595;52.180;4.512;2023-11-21T05:36:08;2.63;;;1.48;;
82032;SDS011;71595;52.180;4.512;2023-11-21T05:38:35;4.05;;;1.50;;
82032;SDS011;71595;52.180;4.512;2023-11-21T05:41:01;2.80;;;1.50;;
82032;SDS011;71595;52.180;4.512;2023-11-21T05:43:27;3.17;;;1.65;;
82032;SDS011;71595;52.180;4.512;2023-11-21T05:45:54;2.92;;;1.40;;
82032;SDS011;71595;52.180;4.512;2023-11-21T05:48:20;4.80;;;1.63;;
82032;SDS011;71595;52.180;4.512;2023-11-21T05:50:46;3.63;;;1.15;;
82032;SDS011;71595;52.180;4.512;2023-11-21T05:53:12;4.90;;;1.30;;
82032;SDS011;71595;52.180;4.512;2023-11-21T05:55:37;4.63;;;1.60;;
82032;SDS011;71595;52.180;4.512;2023-11-21T05:58:04;3.53;;;1.30;;
82032;SDS011;71595;52.180;4.512;2023-11-21T06:00:29;3.88;;;1.30;;
82032;SDS011;71595;52.180;4.512;2023-11-21T06:02:57;3.60;;;1.20;;
82032;SDS011;71595;52.180;4.512;2023-11-21T06:05:23;4.97;;;1.60;;
82032;SDS011;71595;52.180;4.512;2023-11-21T06:07:50;3.60;;;1.20;;
82032;SDS011;71595;52.180;4.512;2023-11-21T06:10:17;2.15;;;1.00;;
82032;SDS011;71595;52.180;4.512;2023-11-21T06:12:45;3.40;;;1.17;;
82032;SDS011;71595;52.180;4.512;2023-11-21T06:15:10;5.63;;;1.20;;
82032;SDS011;71595;52.180;4.512;2023-11-21T06:17:38;3.42;;;1.20;;
82032;SDS011;71595;52.180;4.512;2023-11-21T06:20:08;5.68;;;1.40;;
82032;SDS011;71595;52.180;4.512;2023-11-21T06:22:36;5.70;;;2.10;;
82032;SDS011;71595;52.180;4.512;2023-11-21T06:25:03;4.70;;;1.65;;
82032;SDS011;71595;52.180;4.512;2023-11-21T06:27:32;2.63;;;1.33;;
82032;SDS011;71595;52.180;4.512;2023-11-21T06:29:59;7.70;;;1.52;;
82032;SDS011;71595;52.180;4.512;2023-11-21T06:32:24;6.65;;;1.30;;
82032;SDS011;71595;52.180;4.512;2023-11-21T06:34:51;5.75;;;1.52;;
82032;SDS011;71595;52.180;4.512;2023-11-21T06:37:19;7.82;;;1.40;;
82032;SDS011;71595;52.180;4.512;2023-11-21T06:39:48;6.65;;;1.77;;
82032;SDS011;71595;52.180;4.512;2023-11-21T06:42:13;3.55;;;2.08;;
82032;SDS011;71595;52.180;4.512;2023-11-21T06:44:40;3.65;;;1.60;;
82032;SDS011;71595;52.180;4.512;2023-11-21T06:47:06;5.07;;;1.83;;
82032;SDS011;71595;52.180;4.512;2023-11-21T06:49:32;7.13;;;2.03;;
82032;SDS011;71595;52.180;4.512;2023-11-21T06:51:57;6.03;;;2.15;;
82032;SDS011;71595;52.180;4.512;2023-11-21T06:56:49;6.40;;;1.83;;
82032;SDS011;71595;52.180;4.512;2023-11-21T06:59:15;7.15;;;2.00;;
82032;SDS011;71595;52.180;4.512;2023-11-21T07:04:06;5.40;;;2.22;;
82032;SDS011;71595;52.180;4.512;2023-11-21T07:06:32;7.75;;;1.70;;
82032;SDS011;71595;52.180;4.512;2023-11-21T07:08:58;5.18;;;1.70;;
82032;SDS011;71595;52.180;4.512;2023-11-21T07:11:23;4.32;;;1.50;;
82032;SDS011;71595;52.180;4.512;2023-11-21T07:13:50;4.30;;;1.63;;
82032;SDS011;71595;52.180;4.512;2023-11-21T07:16:15;4.00;;;1.65;;
82032;SDS011;71595;52.180;4.512;2023-11-21T07:18:41;5.90;;;1.73;;
82032;SDS011;71595;52.180;4.512;2023-11-21T07:21:06;2.55;;;1.40;;
82032;SDS011;71595;52.180;4.512;2023-11-21T07:23:33;6.43;;;1.60;;
82032;SDS011;71595;52.180;4.512;2023-11-21T07:25:59;5.00;;;1.17;;
82032;SDS011;71595;52.180;4.512;2023-11-21T07:30:50;5.68;;;1.45;;
82032;SDS011;71595;52.180;4.512;2023-11-21T07:33:16;4.47;;;1.45;;
82032;SDS011;71595;52.180;4.512;2023-11-21T07:35:42;4.82;;;1.50;;
82032;SDS011;71595;52.180;4.512;2023-11-21T07:38:07;5.43;;;1.83;;
82032;SDS011;71595;52.180;4.512;2023-11-21T07:42:58;6.85;;;1.58;;
82032;SDS011;71595;52.180;4.512;2023-11-21T07:45:24;3.00;;;1.50;;
82032;SDS011;71595;52.180;4.512;2023-11-21T07:47:52;4.68;;;1.58;;
82032;SDS011;71595;52.180;4.512;2023-11-21T07:50:18;4.43;;;1.85;;
82032;SDS011;71595;52.180;4.512;2023-11-21T07:52:45;4.72;;;1.70;;
82032;SDS011;71595;52.180;4.512;2023-11-21T07:55:10;5.60;;;1.95;;
82032;SDS011;71595;52.180;4.512;2023-11-21T07:57:36;8.25;;;2.22;;
82032;SDS011;71595;52.180;4.512;2023-11-21T08:00:02;5.35;;;2.28;;
82032;SDS011;71595;52.180;4.512;2023-11-21T08:02:31;6.55;;;2.10;;
82032;SDS011;71595;52.180;4.512;2023-11-21T08:04:57;6.03;;;2.30;;
82032;SDS011;71595;52.180;4.512;2023-11-21T08:07:22;7.70;;;2.17;;
82032;SDS011;71595;52.180;4.512;2023-11-21T08:09:47;6.63;;;2.50;;
82032;SDS011;71595;52.180;4.512;2023-11-21T08:12:15;7.28;;;2.85;;
82032;SDS011;71595;52.180;4.512;2023-11-21T08:14:40;6.05;;;2.38;;
82032;SDS011;71595;52.180;4.512;2023-11-21T08:17:06;6.47;;;2.33;;
82032;SDS011;71595;52.180;4.512;2023-11-21T08:19:31;7.03;;;2.90;;
82032;SDS011;71595;52.180;4.512;2023-11-21T08:21:57;5.35;;;2.45;;
82032;SDS011;71595;52.180;4.512;2023-11-21T08:24:24;5.82;;;2.63;;
82032;SDS011;71595;52.180;4.512;2023-11-21T08:26:50;6.90;;;2.40;;
82032;SDS011;71595;52.180;4.512;2023-11-21T08:29:17;6.45;;;1.88;;
82032;SDS011;71595;52.180;4.512;2023-11-21T08:31:43;5.05;;;1.63;;
82032;SDS011;71595;52.180;4.512;2023-11-21T08:34:11;7.38;;;2.35;;
82032;SDS011;71595;52.180;4.512;2023-11-21T08:36:40;2.58;;;1.50;;
82032;SDS011;71595;52.180;4.512;2023-11-21T08:39:09;4.82;;;2.05;;
82032;SDS011;71595;52.180;4.512;2023-11-21T08:41:35;5.60;;;1.90;;
82032;SDS011;71595;52.180;4.512;2023-11-21T08:44:01;6.68;;;1.90;;
82032;SDS011;71595;52.180;4.512;2023-11-21T08:46:27;5.55;;;2.47;;
82032;SDS011;71595;52.180;4.512;2023-11-21T08:48:52;4.88;;;2.20;;
82032;SDS011;71595;52.180;4.512;2023-11-21T08:51:18;5.18;;;2.42;;
82032;SDS011;71595;52.180;4.512;2023-11-21T08:53:43;6.43;;;2.53;;
82032;SDS011;71595;52.180;4.512;2023-11-21T08:56:12;6.63;;;2.67;;
82032;SDS011;71595;52.180;4.512;2023-11-21T08:58:39;4.93;;;2.40;;
82032;SDS011;71595;52.180;4.512;2023-11-21T09:01:04;5.97;;;2.80;;
82032;SDS011;71595;52.180;4.512;2023-11-21T09:03:32;6.18;;;2.80;;
82032;SDS011;71595;52.180;4.512;2023-11-21T09:05:59;5.57;;;2.72;;
82032;SDS011;71595;52.180;4.512;2023-11-21T09:08:24;5.07;;;2.65;;
82032;SDS011;71595;52.180;4.512;2023-11-21T09:10:50;7.30;;;3.10;;
82032;SDS011;71595;52.180;4.512;2023-11-21T09:13:15;6.55;;;3.13;;
82032;SDS011;71595;52.180;4.512;2023-11-21T09:15:41;5.43;;;2.67;;
82032;SDS011;71595;52.180;4.512;2023-11-21T09:18:08;6.95;;;2.80;;
82032;SDS011;71595;52.180;4.512;2023-11-21T09:20:35;7.88;;;2.90;;
82032;SDS011;71595;52.180;4.512;2023-11-21T09:23:00;7.63;;;3.10;;
82032;SDS011;71595;52.180;4.512;2023-11-21T09:27:51;7.90;;;3.20;;
82032;SDS011;71595;52.180;4.512;2023-11-21T09:30:17;6.05;;;2.85;;
82032;SDS011;71595;52.180;4.512;2023-11-21T09:32:42;6.65;;;3.40;;
82032;SDS011;71595;52.180;4.512;2023-11-21T09:35:10;7.60;;;3.42;;
82032;SDS011;71595;52.180;4.512;2023-11-21T09:37:36;7.43;;;3.30;;
82032;SDS011;71595;52.180;4.512;2023-11-21T09:40:03;6.07;;;3.65;;
82032;SDS011;71595;52.180;4.512;2023-11-21T09:42:30;7.22;;;3.10;;
82032;SDS011;71595;52.180;4.512;2023-11-21T09:45:05;5.50;;;3.30;;
82032;SDS011;71595;52.180;4.512;2023-11-21T09:47:40;7.72;;;3.58;;
82032;SDS011;71595;52.180;4.512;2023-11-21T09:50:07;6.85;;;3.40;;
82032;SDS011;71595;52.180;4.512;2023-11-21T09:52:44;8.32;;;3.58;;
82032;SDS011;71595;52.180;4.512;2023-11-21T09:55:22;5.20;;;3.10;;
82032;SDS011;71595;52.180;4.512;2023-11-21T09:57:51;5.05;;;2.45;;
82032;SDS011;71595;52.180;4.512;2023-11-21T10:00:19;6.15;;;3.00;;
82032;SDS011;71595;52.180;4.512;2023-11-21T10:02:48;3.30;;;2.13;;
82032;SDS011;71595;52.180;4.512;2023-11-21T10:05:15;4.57;;;2.60;;
82032;SDS011;71595;52.180;4.512;2023-11-21T10:07:43;5.55;;;2.63;;
82032;SDS011;71595;52.180;4.512;2023-11-21T10:10:10;4.95;;;2.80;;
82032;SDS011;71595;52.180;4.512;2023-11-21T10:12:36;5.68;;;2.35;;
82032;SDS011;71595;52.180;4.512;2023-11-21T10:15:03;4.30;;;2.63;;
82032;SDS011;71595;52.180;4.512;2023-11-21T10:17:34;4.60;;;2.63;;
82032;SDS011;71595;52.180;4.512;2023-11-21T10:20:08;6.82;;;2.72;;
82032;SDS011;71595;52.180;4.512;2023-11-21T10:22:38;5.22;;;2.70;;
82032;SDS011;71595;52.180;4.512;2023-11-21T10:25:12;6.38;;;2.25;;
82032;SDS011;71595;52.180;4.512;2023-11-21T10:27:43;3.85;;;2.33;;
82032;SDS011;71595;52.180;4.512;2023-11-21T10:30:12;4.50;;;2.40;;
82032;SDS011;71595;52.180;4.512;2023-11-21T10:32:41;3.90;;;2.10;;
82032;SDS011;71595;52.180;4.512;2023-11-21T10:35:07;4.60;;;2.50;;
82032;SDS011;71595;52.180;4.512;2023-11-21T10:37:37;5.78;;;2.95;;
82032;SDS011;71595;52.180;4.512;2023-11-21T10:40:05;6.82;;;3.13;;
82032;SDS011;71595;52.180;4.512;2023-11-21T10:42:32;6.95;;;3.22;;
82032;SDS011;71595;52.180;4.512;2023-11-21T10:44:57;8.63;;;3.58;;
82032;SDS011;71595;52.180;4.512;2023-11-21T10:47:23;6.50;;;3.05;;
82032;SDS011;71595;52.180;4.512;2023-11-21T10:49:49;6.15;;;3.42;;
82032;SDS011;71595;52.180;4.512;2023-11-21T10:52:14;5.88;;;3.28;;
82032;SDS011;71595;52.180;4.512;2023-11-21T10:54:43;8.70;;;3.83;;
82032;SDS011;71595;52.180;4.512;2023-11-21T11:13:17;10.60;;;3.97;;
82032;SDS011;71595;52.180;4.512;2023-11-21T11:15:43;8.52;;;4.15;;
82032;SDS011;71595;52.180;4.512;2023-11-21T11:18:12;8.00;;;4.18;;
82032;SDS011;71595;52.180;4.512;2023-11-21T11:20:38;9.63;;;4.35;;
82032;SDS011;71595;52.180;4.512;2023-11-21T11:28:21;7.25;;;3.70;;
82032;SDS011;71595;52.180;4.512;2023-11-21T11:34:32;6.72;;;3.72;;
82032;SDS011;71595;52.180;4.512;2023-11-21T11:36:40;8.98;;;4.47;;
82032;SDS011;71595;52.180;4.512;2023-11-21T11:41:57;6.82;;;3.67;;
82032;SDS011;71595;52.180;4.512;2023-11-21T11:47:16;7.03;;;3.72;;
82032;SDS011;71595;52.180;4.512;2023-11-21T11:52:44;7.65;;;4.22;;
82032;SDS011;71595;52.180;4.512;2023-11-21T11:55:14;6.75;;;3.40;;
82032;SDS011;71595;52.180;4.512;2023-11-21T11:57:44;8.13;;;3.70;;
82032;SDS011;71595;52.180;4.512;2023-11-21T12:00:21;6.82;;;4.18;;
82032;SDS011;71595;52.180;4.512;2023-11-21T12:02:54;7.63;;;3.80;;
82032;SDS011;71595;52.180;4.512;2023-11-21T12:05:25;7.00;;;3.70;;
82032;SDS011;71595;52.180;4.512;2023-11-21T12:07:54;7.25;;;3.90;;
82032;SDS011;71595;52.180;4.512;2023-11-21T12:10:26;7.43;;;3.80;;
82032;SDS011;71595;52.180;4.512;2023-11-21T12:13:02;6.88;;;4.32;;
82032;SDS011;71595;52.180;4.512;2023-11-21T12:15:35;7.07;;;4.57;;
82032;SDS011;71595;52.180;4.512;2023-11-21T12:18:01;8.02;;;3.85;;
82032;SDS011;71595;52.180;4.512;2023-11-21T12:20:27;8.27;;;4.28;;
82032;SDS011;71595;52.180;4.512;2023-11-21T12:22:57;6.85;;;3.60;;
82032;SDS011;71595;52.180;4.512;2023-11-21T12:25:30;6.90;;;3.78;;
82032;SDS011;71595;52.180;4.512;2023-11-21T12:28:00;7.28;;;4.15;;
82032;SDS011;71595;52.180;4.512;2023-11-21T12:30:27;8.18;;;4.10;;
82032;SDS011;71595;52.180;4.512;2023-11-21T12:32:55;7.07;;;3.92;;
82032;SDS011;71595;52.180;4.512;2023-11-21T12:35:23;7.50;;;3.45;;
82032;SDS011;71595;52.180;4.512;2023-11-21T12:37:51;7.20;;;3.97;;
82032;SDS011;71595;52.180;4.512;2023-11-21T12:40:17;6.45;;;3.50;;
82032;SDS011;71595;52.180;4.512;2023-11-21T12:42:46;5.72;;;3.72;;
82032;SDS011;71595;52.180;4.512;2023-11-21T12:47:45;7.25;;;4.40;;
82032;SDS011;71595;52.180;4.512;2023-11-21T12:50:21;7.03;;;4.47;;
82032;SDS011;71595;52.180;4.512;2023-11-21T12:52:49;10.57;;;4.53;;
82032;SDS011;71595;52.180;4.512;2023-11-21T12:55:22;7.95;;;4.30;;
82032;SDS011;71595;52.180;4.512;2023-11-21T12:57:49;7.30;;;3.92;;
82032;SDS011;71595;52.180;4.512;2023-11-21T13:00:17;7.68;;;4.30;;
82032;SDS011;71595;52.180;4.512;2023-11-21T13:02:53;8.55;;;4.40;;
82032;SDS011;71595;52.180;4.512;2023-11-21T13:07:55;6.47;;;4.68;;
82032;SDS011;71595;52.180;4.512;2023-11-21T13:10:25;7.70;;;3.75;;
82032;SDS011;71595;52.180;4.512;2023-11-21T13:12:55;8.70;;;4.00;;
82032;SDS011;71595;52.180;4.512;2023-11-21T13:15:25;7.68;;;4.03;;
82032;SDS011;71595;52.180;4.512;2023-11-21T13:17:52;6.47;;;3.88;;
82032;SDS011;71595;52.180;4.512;2023-11-21T13:20:19;7.38;;;3.70;;
82032;SDS011;71595;52.180;4.512;2023-11-21T13:22:49;6.45;;;3.40;;
82032;SDS011;71595;52.180;4.512;2023-11-21T13:25:17;6.57;;;3.22;;
82032;SDS011;71595;52.180;4.512;2023-11-21T13:27:43;6.95;;;3.90;;
82032;SDS011;71595;52.180;4.512;2023-11-21T13:30:11;7.65;;;4.22;;
82032;SDS011;71595;52.180;4.512;2023-11-21T13:32:40;6.55;;;3.97;;
82032;SDS011;71595;52.180;4.512;2023-11-21T13:35:07;7.65;;;3.85;;
82032;SDS011;71595;52.180;4.512;2023-11-21T13:37:37;6.65;;;3.88;;
82032;SDS011;71595;52.180;4.512;2023-11-21T13:40:03;7.25;;;4.10;;
82032;SDS011;71595;52.180;4.512;2023-11-21T13:42:35;9.02;;;4.47;;
82032;SDS011;71595;52.180;4.512;2023-11-21T13:45:00;7.47;;;4.15;;
82032;SDS011;71595;52.180;4.512;2023-11-21T13:47:25;9.32;;;4.72;;
82032;SDS011;71595;52.180;4.512;2023-11-21T13:49:54;8.88;;;5.10;;
82032;SDS011;71595;52.180;4.512;2023-11-21T13:52:20;8.57;;;4.57;;
82032;SDS011;71595;52.180;4.512;2023-11-21T13:54:49;9.52;;;4.70;;
82032;SDS011;71595;52.180;4.512;2023-11-21T13:57:15;10.30;;;5.15;;
82032;SDS011;71595;52.180;4.512;2023-11-21T13:59:41;8.15;;;5.13;;
82032;SDS011;71595;52.180;4.512;2023-11-21T14:02:09;9.40;;;5.40;;
82032;SDS011;71595;52.180;4.512;2023-11-21T14:04:42;8.23;;;5.10;;
82032;SDS011;71595;52.180;4.512;2023-11-21T14:07:23;10.35;;;5.05;;
82032;SDS011;71595;52.180;4.512;2023-11-21T14:09:57;11.23;;;5.13;;
82032;SDS011;71595;52.180;4.512;2023-11-21T14:12:23;10.13;;;5.55;;
82032;SDS011;71595;52.180;4.512;2023-11-21T14:14:49;11.00;;;5.68;;
82032;SDS011;71595;52.180;4.512;2023-11-21T14:17:14;11.55;;;6.30;;
82032;SDS011;71595;52.180;4.512;2023-11-21T14:19:40;11.40;;;5.80;;
82032;SDS011;71595;52.180;4.512;2023-11-21T14:22:08;14.27;;;6.45;;
82032;SDS011;71595;52.180;4.512;2023-11-21T14:24:35;11.60;;;6.10;;
82032;SDS011;71595;52.180;4.512;2023-11-21T14:27:00;11.32;;;6.15;;
82032;SDS011;71595;52.180;4.512;2023-11-21T14:31:52;10.90;;;5.13;;
82032;SDS011;71595;52.180;4.512;2023-11-21T14:34:21;10.30;;;5.57;;
82032;SDS011;71595;52.180;4.512;2023-11-21T14:36:47;10.07;;;5.50;;
82032;SDS011;71595;52.180;4.512;2023-11-21T14:39:14;8.57;;;4.80;;
82032;SDS011;71595;52.180;4.512;2023-11-21T14:41:51;9.98;;;5.20;;
82032;SDS011;71595;52.180;4.512;2023-11-21T14:44:18;7.07;;;4.18;;
82032;SDS011;71595;52.180;4.512;2023-11-21T14:46:43;7.53;;;4.50;;
82032;SDS011;71595;52.180;4.512;2023-11-21T14:49:11;9.43;;;5.15;;
82032;SDS011;71595;52.180;4.512;2023-11-21T14:51:47;7.80;;;4.40;;
82032;SDS011;71595;52.180;4.512;2023-11-21T14:54:25;8.85;;;4.65;;
82032;SDS011;71595;52.180;4.512;2023-11-21T14:57:05;10.50;;;4.95;;
82032;SDS011;71595;52.180;4.512;2023-11-21T14:59:46;9.20;;;4.47;;
82032;SDS011;71595;52.180;4.512;2023-11-21T15:02:14;9.20;;;4.55;;
82032;SDS011;71595;52.180;4.512;2023-11-21T15:04:43;13.52;;;4.95;;
82032;SDS011;71595;52.180;4.512;2023-11-21T15:07:09;8.32;;;4.53;;
82032;SDS011;71595;52.180;4.512;2023-11-21T15:13:04;8.13;;;4.45;;
82032;SDS011;71595;52.180;4.512;2023-11-21T15:15:30;8.18;;;4.30;;
82032;SDS011;71595;52.180;4.512;2023-11-21T15:17:58;8.90;;;4.35;;
82032;SDS011;71595;52.180;4.512;2023-11-21T15:20:23;8.65;;;4.45;;
82032;SDS011;71595;52.180;4.512;2023-11-21T15:22:51;7.20;;;4.43;;
82032;SDS011;71595;52.180;4.512;2023-11-21T15:25:16;8.75;;;4.25;;
82032;SDS011;71595;52.180;4.512;2023-11-21T15:27:42;7.50;;;3.95;;
82032;SDS011;71595;52.180;4.512;2023-11-21T15:32:33;6.10;;;3.80;;
82032;SDS011;71595;52.180;4.512;2023-11-21T15:37:24;8.50;;;4.32;;
82032;SDS011;71595;52.180;4.512;2023-11-21T15:39:52;7.07;;;4.25;;
82032;SDS011;71595;52.180;4.512;2023-11-21T15:42:18;7.18;;;4.40;;
82032;SDS011;71595;52.180;4.512;2023-11-21T15:47:08;8.13;;;4.33;;
82032;SDS011;71595;52.180;4.512;2023-11-21T15:52:01;8.32;;;4.75;;
82032;SDS011;71595;52.180;4.512;2023-11-21T15:54:28;8.45;;;4.30;;
82032;SDS011;71595;52.180;4.512;2023-11-21T15:56:54;6.65;;;4.28;;
82032;SDS011;71595;52.180;4.512;2023-11-21T15:59:25;7.88;;;4.72;;
82032;SDS011;71595;52.180;4.512;2023-11-21T16:01:56;6.95;;;4.45;;
82032;SDS011;71595;52.180;4.512;2023-11-21T16:04:24;10.45;;;5.13;;
82032;SDS011;71595;52.180;4.512;2023-11-21T16:06:52;8.45;;;5.40;;
82032;SDS011;71595;52.180;4.512;2023-11-21T16:09:18;7.90;;;4.78;;
82032;SDS011;71595;52.180;4.512;2023-11-21T16:11:48;10.40;;;5.88;;
82032;SDS011;71595;52.180;4.512;2023-11-21T16:14:18;8.43;;;4.80;;
82032;SDS011;71595;52.180;4.512;2023-11-21T16:16:45;8.18;;;4.63;;
82032;SDS011;71595;52.180;4.512;2023-11-21T16:19:10;9.10;;;5.43;;
82032;SDS011;71595;52.180;4.512;2023-11-21T16:21:36;8.90;;;5.00;;
82032;SDS011;71595;52.180;4.512;2023-11-21T16:26:27;8.13;;;4.67;;
82032;SDS011;71595;52.180;4.512;2023-11-21T16:28:53;9.07;;;5.50;;
82032;SDS011;71595;52.180;4.512;2023-11-21T16:33:48;7.50;;;4.95;;
82032;SDS011;71595;52.180;4.512;2023-11-21T16:36:13;8.82;;;5.05;;
82032;SDS011;71595;52.180;4.512;2023-11-21T16:41:04;11.18;;;5.80;;
82032;SDS011;71595;52.180;4.512;2023-11-21T16:45:54;7.25;;;4.57;;
82032;SDS011;71595;52.180;4.512;2023-11-21T16:48:20;8.73;;;5.32;;
82032;SDS011;71595;52.180;4.512;2023-11-21T16:53:11;9.02;;;4.97;;
82032;SDS011;71595;52.180;4.512;2023-11-21T16:55:37;9.68;;;5.25;;
82032;SDS011;71595;52.180;4.512;2023-11-21T16:58:02;8.20;;;4.80;;
82032;SDS011;71595;52.180;4.512;2023-11-21T17:00:27;10.00;;;5.25;;
82032;SDS011;71595;52.180;4.512;2023-11-21T17:05:18;8.57;;;4.47;;
82032;SDS011;71595;52.180;4.512;2023-11-21T17:07:46;9.80;;;5.47;;
82032;SDS011;71595;52.180;4.512;2023-11-21T17:10:12;9.60;;;5.03;;
82032;SDS011;71595;52.180;4.512;2023-11-21T17:12:39;11.27;;;5.63;;
82032;SDS011;71595;52.180;4.512;2023-11-21T17:15:04;8.85;;;5.20;;
82032;SDS011;71595;52.180;4.512;2023-11-21T17:17:32;9.10;;;5.20;;